Terminal Aerodrome Forecast
Issued by NWS

Home | Current Version | Previous Version | Text Only | Print | Product List | Glossary On
Versions: 1 2 3 4 5 6 7 8 9 10 11 12 13
000
FTUS46 KLOX 281100
TAFSBA
TAF
KSBA 281127Z 2812/0112 32007KT P6SM SCT050
     FM281500 VRB03KT P6SM BKN050
     FM281800 22010KT P6SM VCSH SCT025 BKN040
     FM282100 27015KT P6SM -SHRA BKN025 OVC040
     FM010200 33007KT 6SM -SHRA VCTS SCT015CB OVC025
     FM010800 VRB03KT 6SM -SHRA VCTS SCT015CB OVC025=

USA.gov is the U.S. government's official web portal to all federal, state and local government web resources and services.